• Join FlightAware (Why Join?)
  • Login
  • US Flag 
01:28AM EDT


 

Airport Tracker/Info


-or-


 

Live Flight TrackerFlight Track Log ✈ N401CG ✈ 29-Apr-2013 ✈ KFFM - KSTP

Flight Track Log - Related Links

Times and Time Zones

All times are in EDT time to prevent confusion due to time zone crossing. See the N401CG flight status page for this flight to view local times or setup timezone preferences in your user account.

Time Position Orientation Groundspeed Altitude Reporting Facility
EDT Latitude Longitude Course Direction KTS MPH feet Rate Location/Type
06:34PM 46.1994 -95.9119 116° Southeast 202 232 5,800  Level Minneapolis Center
06:36PM 46.1753 -95.8453 118° Southeast 203 234 6,900 1,140 Climbing Minneapolis Center
06:37PM 46.1469 -95.7633 116° Southeast 202 232 8,200 1,140 Climbing Minneapolis Center
06:38PM 46.1192 -95.6864 117° Southeast 205 236 9,300 1,080 Climbing Minneapolis Center
06:39PM 46.0897 -95.6053 118° Southeast 213 245 10,500 1,080 Climbing Minneapolis Center
06:40PM 46.0955 -95.6363 116° Southeast  Level FlightAware Approximate
06:40PM 46.0578 -95.5100 116° Southeast 236 272 11,600  Level Minneapolis Center
06:41PM 46.0256 -95.4214 118° Southeast 249 287 12,700 1,020 Climbing Minneapolis Center
06:42PM 45.9931 -95.3289 117° Southeast 256 295 13,800 960 Climbing Minneapolis Center
06:43PM 45.9511 -95.1964 114° Southeast 261 300 15,000 480 Climbing Minneapolis Center
06:44PM 45.9397 -95.0847 98° East 278 320 15,000  Level Minneapolis Center
06:45PM 45.9261 -94.9764 100° East 286 329 15,000  Level Minneapolis Center
06:46PM 45.9119 -94.8639 100° East 287 330 15,000  Level Minneapolis Center
06:47PM 45.8803 -94.7389 110° East 284 327 15,000  Level Minneapolis Center
06:48PM 45.8483 -94.6375 114° Southeast 280 322 15,000  Level Minneapolis Center
06:49PM 45.8128 -94.5144 112° Southeast 280 322 15,000  Level Minneapolis Center
06:50PM 45.7842 -94.4100 111° Southeast 281 323 15,000  Level Minneapolis Center
06:51PM 45.7536 -94.3089 113° Southeast 279 321 15,000  Level Minneapolis Center
06:53PM 45.7239 -94.2075 113° Southeast 279 321 15,000 -540 Level Minneapolis Center
06:54PM 45.6856 -94.0817 114° Southeast 286 329 13,900 -1,260 Descending Minneapolis Center
06:55PM 45.6575 -93.9875 113° Southeast 314 361 12,500 -1,860 Descending Minneapolis Center
06:56PM 45.6100 -93.8267 113° Southeast 316 364 10,200 -1,920 Descending Minneapolis Center
06:57PM 45.5803 -93.7225 112° Southeast 287 330 8,600 -1,500 Descending Minneapolis Center
06:58PM 45.5506 -93.6272 114° Southeast 267 307 7,100 -780 Descending Minneapolis Center
06:59PM 45.5075 -93.5622 133° Southeast 235 270 7,000 -360 Descending Minneapolis Center
07:00PM 45.4511 -93.5211 153° Southeast 228 262 6,400 -1,140 Descending Minneapolis Center
07:01PM 45.3947 -93.4669 146° Southeast 241 277 4,700 -1,200 Descending Minneapolis Center
07:02PM 45.3419 -93.4211 149° Southeast 222 255 4,000 -360 Descending Minneapolis Center
07:03PM 45.2878 -93.3703 147° Southeast 195 224 4,000  Level Minneapolis Center
07:04PM 45.2406 -93.3297 149° Southeast 196 226 4,000  Level Minneapolis Center
07:05PM 45.1847 -93.2794 148° Southeast 197 227 4,000  Level Minneapolis Center
07:06PM 45.1372 -93.2378 148° Southeast 200 230 4,000  Level Minneapolis Center
07:07PM 45.0900 -93.1983 149° Southeast 199 229 4,000 -600 Level Minneapolis Center
07:08PM 45.0369 -93.1636 155° Southeast 209 241 2,800 -900 Descending Minneapolis Center
07:09PM 44.9953 -93.1161 141° Southeast 189 217 2,200 -840 Descending Minneapolis Center
07:10PM 44.9558 -93.0817 148° Southeast 135 155 1,200 -660 Descending Minneapolis Center
07:11PM 44.9369 -93.0600 141° Southeast 121 139 900 -300 Descending Minneapolis Center
07:13PM 44.9333 -93.0500 109° East  Level FlightAware Approximate